sensor_id;sensor_type;location;lat;lon;timestamp;pressure;altitude;pressure_sealevel;temperature;humidity
67517;BME280;68821;59.134;37.894;2023-04-08T00:00:10;101548.75;;;0.48;48.33
67517;BME280;68821;59.134;37.894;2023-04-08T00:02:36;101541.69;;;0.44;48.22
67517;BME280;68821;59.134;37.894;2023-04-08T00:05:02;101550.28;;;0.46;48.34
67517;BME280;68821;59.134;37.894;2023-04-08T00:07:28;101548.50;;;0.45;48.52
67517;BME280;68821;59.134;37.894;2023-04-08T00:09:54;101545.09;;;0.44;48.42
67517;BME280;68821;59.134;37.894;2023-04-08T00:12:21;101549.28;;;0.44;48.37
67517;BME280;68821;59.134;37.894;2023-04-08T00:14:47;101537.91;;;0.38;48.42
67517;BME280;68821;59.134;37.894;2023-04-08T00:17:13;101541.22;;;0.37;48.51
67517;BME280;68821;59.134;37.894;2023-04-08T00:19:39;101545.50;;;0.38;48.55
67517;BME280;68821;59.134;37.894;2023-04-08T00:22:06;101548.03;;;0.38;48.62
67517;BME280;68821;59.134;37.894;2023-04-08T00:24:33;101547.03;;;0.36;48.52
67517;BME280;68821;59.134;37.894;2023-04-08T00:26:59;101546.16;;;0.36;48.69
67517;BME280;68821;59.134;37.894;2023-04-08T00:29:25;101541.41;;;0.29;48.84
67517;BME280;68821;59.134;37.894;2023-04-08T00:31:51;101544.69;;;0.28;48.95
67517;BME280;68821;59.134;37.894;2023-04-08T00:34:17;101545.09;;;0.22;48.96
67517;BME280;68821;59.134;37.894;2023-04-08T00:36:44;101555.97;;;0.21;48.98
67517;BME280;68821;59.134;37.894;2023-04-08T00:39:10;101546.50;;;0.18;49.20
67517;BME280;68821;59.134;37.894;2023-04-08T00:41:36;101549.66;;;0.16;49.20
67517;BME280;68821;59.134;37.894;2023-04-08T00:44:02;101555.63;;;0.16;49.42
67517;BME280;68821;59.134;37.894;2023-04-08T00:46:29;101544.38;;;0.13;49.24
67517;BME280;68821;59.134;37.894;2023-04-08T00:48:56;101545.38;;;0.15;49.76
67517;BME280;68821;59.134;37.894;2023-04-08T00:51:22;101553.72;;;0.14;49.27
67517;BME280;68821;59.134;37.894;2023-04-08T00:53:48;101553.72;;;0.14;49.31
67517;BME280;68821;59.134;37.894;2023-04-08T00:56:15;101551.31;;;0.15;49.46
67517;BME280;68821;59.134;37.894;2023-04-08T00:58:41;101550.97;;;0.11;49.41
67517;BME280;68821;59.134;37.894;2023-04-08T01:01:16;101550.31;;;0.13;49.65
67517;BME280;68821;59.134;37.894;2023-04-08T01:03:57;101546.66;;;0.10;49.81
67517;BME280;68821;59.134;37.894;2023-04-08T01:09:08;101548.19;;;0.08;49.69
67517;BME280;68821;59.134;37.894;2023-04-08T01:11:37;101545.31;;;0.03;49.43
67517;BME280;68821;59.134;37.894;2023-04-08T01:14:06;101545.69;;;-0.03;49.84
67517;BME280;68821;59.134;37.894;2023-04-08T01:16:37;101551.66;;;-0.02;50.08
67517;BME280;68821;59.134;37.894;2023-04-08T01:19:07;101549.75;;;-0.05;49.87
67517;BME280;68821;59.134;37.894;2023-04-08T01:21:36;101547.75;;;-0.09;49.83
67517;BME280;68821;59.134;37.894;2023-04-08T01:24:22;101542.34;;;-0.13;50.26
67517;BME280;68821;59.134;37.894;2023-04-08T01:26:52;101542.22;;;-0.15;49.71
67517;BME280;68821;59.134;37.894;2023-04-08T01:29:19;101545.41;;;-0.17;49.87
67517;BME280;68821;59.134;37.894;2023-04-08T01:31:45;101544.25;;;-0.21;49.90
67517;BME280;68821;59.134;37.894;2023-04-08T01:34:13;101544.16;;;-0.23;50.04
67517;BME280;68821;59.134;37.894;2023-04-08T01:36:41;101546.44;;;-0.26;50.07
67517;BME280;68821;59.134;37.894;2023-04-08T01:39:10;101541.16;;;-0.29;50.03
67517;BME280;68821;59.134;37.894;2023-04-08T01:41:36;101542.53;;;-0.32;49.96
67517;BME280;68821;59.134;37.894;2023-04-08T01:44:03;101545.81;;;-0.33;50.06
67517;BME280;68821;59.134;37.894;2023-04-08T01:46:31;101548.88;;;-0.37;50.14
67517;BME280;68821;59.134;37.894;2023-04-08T01:48:58;101546.84;;;-0.42;50.21
67517;BME280;68821;59.134;37.894;2023-04-08T01:51:25;101541.56;;;-0.45;50.18
67517;BME280;68821;59.134;37.894;2023-04-08T01:53:52;101544.63;;;-0.49;49.95
67517;BME280;68821;59.134;37.894;2023-04-08T01:56:21;101548.00;;;-0.48;50.31
67517;BME280;68821;59.134;37.894;2023-04-08T01:58:53;101550.31;;;-0.51;50.37
67517;BME280;68821;59.134;37.894;2023-04-08T02:01:22;101550.06;;;-0.54;50.38
67517;BME280;68821;59.134;37.894;2023-04-08T02:03:52;101553.09;;;-0.58;50.52
67517;BME280;68821;59.134;37.894;2023-04-08T02:06:22;101548.81;;;-0.59;50.78
67517;BME280;68821;59.134;37.894;2023-04-08T02:08:48;101545.91;;;-0.64;50.73
67517;BME280;68821;59.134;37.894;2023-04-08T02:11:14;101550.34;;;-0.62;50.36
67517;BME280;68821;59.134;37.894;2023-04-08T02:13:41;101537.44;;;-0.65;51.14
67517;BME280;68821;59.134;37.894;2023-04-08T02:16:31;101546.53;;;-0.67;50.60
67517;BME280;68821;59.134;37.894;2023-04-08T02:19:08;101544.66;;;-0.69;51.16
67517;BME280;68821;59.134;37.894;2023-04-08T02:21:48;101553.75;;;-0.71;51.14
67517;BME280;68821;59.134;37.894;2023-04-08T02:24:16;101551.97;;;-0.72;50.70
67517;BME280;68821;59.134;37.894;2023-04-08T02:26:43;101545.81;;;-0.76;50.94
67517;BME280;68821;59.134;37.894;2023-04-08T02:29:12;101546.56;;;-0.77;50.98
67517;BME280;68821;59.134;37.894;2023-04-08T02:31:41;101546.31;;;-0.80;50.60
67517;BME280;68821;59.134;37.894;2023-04-08T02:34:09;101546.31;;;-0.80;50.82
67517;BME280;68821;59.134;37.894;2023-04-08T02:36:35;101547.06;;;-0.81;51.16
67517;BME280;68821;59.134;37.894;2023-04-08T02:39:03;101536.59;;;-0.86;51.21
67517;BME280;68821;59.134;37.894;2023-04-08T02:41:30;101542.38;;;-0.87;50.99
67517;BME280;68821;59.134;37.894;2023-04-08T02:43:56;101545.91;;;-0.85;51.32
67517;BME280;68821;59.134;37.894;2023-04-08T02:46:23;101548.44;;;-0.85;50.96
67517;BME280;68821;59.134;37.894;2023-04-08T02:48:49;101543.91;;;-0.89;51.25
67517;BME280;68821;59.134;37.894;2023-04-08T02:51:15;101544.16;;;-0.86;51.55
67517;BME280;68821;59.134;37.894;2023-04-08T02:53:41;101526.66;;;-0.94;51.26
67517;BME280;68821;59.134;37.894;2023-04-08T02:56:10;101535.72;;;-0.86;51.50
67517;BME280;68821;59.134;37.894;2023-04-08T02:58:37;101546.31;;;-0.80;51.73
67517;BME280;68821;59.134;37.894;2023-04-08T03:01:02;101548.06;;;-0.79;51.30
67517;BME280;68821;59.134;37.894;2023-04-08T03:03:28;101539.84;;;-0.76;51.69
67517;BME280;68821;59.134;37.894;2023-04-08T03:05:56;101540.63;;;-0.77;52.05
67517;BME280;68821;59.134;37.894;2023-04-08T03:08:23;101537.47;;;-0.75;51.33
67517;BME280;68821;59.134;37.894;2023-04-08T03:10:49;101539.47;;;-0.71;51.79
67517;BME280;68821;59.134;37.894;2023-04-08T03:13:16;101541.50;;;-0.67;51.75
67517;BME280;68821;59.134;37.894;2023-04-08T03:15:42;101539.09;;;-0.65;51.53
67517;BME280;68821;59.134;37.894;2023-04-08T03:18:08;101535.28;;;-0.60;51.66
67517;BME280;68821;59.134;37.894;2023-04-08T03:20:34;101521.94;;;-0.69;51.58
67517;BME280;68821;59.134;37.894;2023-04-08T03:23:00;101533.00;;;-0.57;51.58
67517;BME280;68821;59.134;37.894;2023-04-08T03:25:26;101533.25;;;-0.54;51.50
67517;BME280;68821;59.134;37.894;2023-04-08T03:27:54;101530.97;;;-0.51;51.71
67517;BME280;68821;59.134;37.894;2023-04-08T03:30:20;101537.16;;;-0.47;51.59
67517;BME280;68821;59.134;37.894;2023-04-08T03:32:46;101521.88;;;-0.49;51.81
67517;BME280;68821;59.134;37.894;2023-04-08T03:35:12;101522.00;;;-0.47;51.65
67517;BME280;68821;59.134;37.894;2023-04-08T03:37:38;101527.56;;;-0.41;51.86
67517;BME280;68821;59.134;37.894;2023-04-08T03:40:05;101523.50;;;-0.39;52.04
67517;BME280;68821;59.134;37.894;2023-04-08T03:42:31;101525.25;;;-0.38;52.17
67517;BME280;68821;59.134;37.894;2023-04-08T03:44:58;101517.94;;;-0.35;51.86
67517;BME280;68821;59.134;37.894;2023-04-08T03:47:24;101524.72;;;-0.34;51.72
67517;BME280;68821;59.134;37.894;2023-04-08T03:49:52;101528.63;;;-0.27;51.79
67517;BME280;68821;59.134;37.894;2023-04-08T03:52:19;101530.75;;;-0.22;52.00
67517;BME280;68821;59.134;37.894;2023-04-08T03:54:50;101535.28;;;-0.17;51.60
67517;BME280;68821;59.134;37.894;2023-04-08T03:57:16;101537.16;;;-0.15;51.66
67517;BME280;68821;59.134;37.894;2023-04-08T03:59:42;101535.13;;;-0.09;51.85
67517;BME280;68821;59.134;37.894;2023-04-08T04:02:08;101528.66;;;-0.05;51.69
67517;BME280;68821;59.134;37.894;2023-04-08T04:04:34;101528.13;;;-0.01;51.85
67517;BME280;68821;59.134;37.894;2023-04-08T04:07:02;101527.38;;;0.00;51.65
67517;BME280;68821;59.134;37.894;2023-04-08T04:09:28;101524.44;;;0.06;51.37
67517;BME280;68821;59.134;37.894;2023-04-08T04:11:54;101524.91;;;0.12;51.81
67517;BME280;68821;59.134;37.894;2023-04-08T04:14:20;101530.44;;;0.18;51.81
67517;BME280;68821;59.134;37.894;2023-04-08T04:16:46;101516.16;;;0.18;51.93
67517;BME280;68821;59.134;37.894;2023-04-08T04:19:12;101528.63;;;0.27;51.75
67517;BME280;68821;59.134;37.894;2023-04-08T04:21:38;101524.69;;;0.31;51.71
67517;BME280;68821;59.134;37.894;2023-04-08T04:24:05;101525.03;;;0.35;51.75
67517;BME280;68821;59.134;37.894;2023-04-08T04:26:31;101525.63;;;0.43;51.58
67517;BME280;68821;59.134;37.894;2023-04-08T04:28:57;101522.78;;;0.50;51.76
67517;BME280;68821;59.134;37.894;2023-04-08T04:31:24;101523.03;;;0.53;51.78
67517;BME280;68821;59.134;37.894;2023-04-08T04:33:53;101526.03;;;0.59;52.00
67517;BME280;68821;59.134;37.894;2023-04-08T04:36:19;101526.50;;;0.66;51.91
67517;BME280;68821;59.134;37.894;2023-04-08T04:38:46;101528.56;;;0.71;51.40
67517;BME280;68821;59.134;37.894;2023-04-08T04:41:12;101527.41;;;0.78;51.78
67517;BME280;68821;59.134;37.894;2023-04-08T04:43:38;101522.81;;;0.84;51.70
67517;BME280;68821;59.134;37.894;2023-04-08T04:46:04;101526.66;;;0.91;51.63
67517;BME280;68821;59.134;37.894;2023-04-08T04:48:36;101521.94;;;0.95;51.67
67517;BME280;68821;59.134;37.894;2023-04-08T04:51:02;101524.50;;;1.07;51.69
67517;BME280;68821;59.134;37.894;2023-04-08T04:53:29;101520.75;;;1.14;51.45
67517;BME280;68821;59.134;37.894;2023-04-08T04:55:56;101521.97;;;1.19;51.19
67517;BME280;68821;59.134;37.894;2023-04-08T04:58:22;101520.00;;;1.27;51.39
67517;BME280;68821;59.134;37.894;2023-04-08T05:00:48;101519.56;;;1.32;51.50
67517;BME280;68821;59.134;37.894;2023-04-08T05:03:14;101530.47;;;1.43;51.10
67517;BME280;68821;59.134;37.894;2023-04-08T05:05:41;101525.94;;;1.51;51.29
67517;BME280;68821;59.134;37.894;2023-04-08T05:08:07;101518.13;;;1.59;51.01
67517;BME280;68821;59.134;37.894;2023-04-08T05:10:33;101513.16;;;1.61;51.00
67517;BME280;68821;59.134;37.894;2023-04-08T05:12:59;101521.94;;;1.78;50.88
67517;BME280;68821;59.134;37.894;2023-04-08T05:15:25;101521.19;;;1.91;50.56
67517;BME280;68821;59.134;37.894;2023-04-08T05:17:51;101527.00;;;2.01;50.51
67517;BME280;68821;59.134;37.894;2023-04-08T05:20:17;101524.09;;;2.09;50.93
67517;BME280;68821;59.134;37.894;2023-04-08T05:22:43;101529.16;;;2.20;50.00
67517;BME280;68821;59.134;37.894;2023-04-08T05:25:11;101528.91;;;2.29;50.36
67517;BME280;68821;59.134;37.894;2023-04-08T05:27:37;101531.41;;;2.41;50.66
67517;BME280;68821;59.134;37.894;2023-04-08T05:30:05;101529.50;;;2.50;50.05
67517;BME280;68821;59.134;37.894;2023-04-08T05:32:31;101522.72;;;2.63;50.12
67517;BME280;68821;59.134;37.894;2023-04-08T05:35:01;101531.91;;;2.74;49.58
67517;BME280;68821;59.134;37.894;2023-04-08T05:37:28;101529.44;;;2.87;49.42
67517;BME280;68821;59.134;37.894;2023-04-08T05:39:54;101521.72;;;2.99;49.00
67517;BME280;68821;59.134;37.894;2023-04-08T05:42:20;101530.25;;;3.13;48.92
67517;BME280;68821;59.134;37.894;2023-04-08T05:44:46;101530.19;;;3.25;48.10
67517;BME280;68821;59.134;37.894;2023-04-08T05:47:12;101533.53;;;3.37;47.60
67517;BME280;68821;59.134;37.894;2023-04-08T05:49:39;101528.25;;;3.47;47.50
67517;BME280;68821;59.134;37.894;2023-04-08T05:52:05;101527.25;;;3.58;47.53
67517;BME280;68821;59.134;37.894;2023-04-08T05:54:32;101526.38;;;3.71;47.10
67517;BME280;68821;59.134;37.894;2023-04-08T05:56:58;101518.34;;;3.78;46.94
67517;BME280;68821;59.134;37.894;2023-04-08T05:59:24;101524.78;;;3.87;46.38
67517;BME280;68821;59.134;37.894;2023-04-08T06:01:50;101528.00;;;3.97;46.62
67517;BME280;68821;59.134;37.894;2023-04-08T06:04:16;101527.69;;;4.06;46.23
67517;BME280;68821;59.134;37.894;2023-04-08T06:06:45;101524.72;;;4.13;46.14
67517;BME280;68821;59.134;37.894;2023-04-08T06:09:11;101518.28;;;4.18;46.04
67517;BME280;68821;59.134;37.894;2023-04-08T06:11:38;101524.59;;;4.25;46.25
67517;BME280;68821;59.134;37.894;2023-04-08T06:14:04;101514.44;;;4.25;46.16
67517;BME280;68821;59.134;37.894;2023-04-08T06:16:30;101531.22;;;4.36;45.69
67517;BME280;68821;59.134;37.894;2023-04-08T06:18:56;101500.22;;;4.29;45.71
67517;BME280;68821;59.134;37.894;2023-04-08T06:21:22;101515.63;;;4.45;45.59
67517;BME280;68821;59.134;37.894;2023-04-08T06:23:48;101522.06;;;4.53;45.90
67517;BME280;68821;59.134;37.894;2023-04-08T06:26:14;101525.16;;;4.62;45.21
67517;BME280;68821;59.134;37.894;2023-04-08T06:28:40;101514.44;;;4.68;45.37
67517;BME280;68821;59.134;37.894;2023-04-08T06:31:06;101520.25;;;4.80;45.00
67517;BME280;68821;59.134;37.894;2023-04-08T06:33:33;101521.69;;;4.90;45.01
67517;BME280;68821;59.134;37.894;2023-04-08T06:36:06;101524.84;;;5.01;44.54
67517;BME280;68821;59.134;37.894;2023-04-08T06:38:33;101525.38;;;5.10;44.49
67517;BME280;68821;59.134;37.894;2023-04-08T06:41:05;101524.13;;;5.18;43.62
67517;BME280;68821;59.134;37.894;2023-04-08T06:43:33;101528.00;;;5.27;44.12
67517;BME280;68821;59.134;37.894;2023-04-08T06:46:00;101510.88;;;5.24;43.83
67517;BME280;68821;59.134;37.894;2023-04-08T06:48:26;101528.88;;;5.42;43.70
67517;BME280;68821;59.134;37.894;2023-04-08T06:50:56;101525.72;;;5.46;44.18
67517;BME280;68821;59.134;37.894;2023-04-08T06:53:23;101522.88;;;5.56;43.42
67517;BME280;68821;59.134;37.894;2023-04-08T06:55:49;101514.69;;;5.62;43.22
67517;BME280;68821;59.134;37.894;2023-04-08T06:58:15;101523.66;;;5.70;43.49
67517;BME280;68821;59.134;37.894;2023-04-08T07:00:42;101520.63;;;5.77;42.80
67517;BME280;68821;59.134;37.894;2023-04-08T07:03:09;101521.91;;;5.85;42.80
67517;BME280;68821;59.134;37.894;2023-04-08T07:05:36;101522.47;;;5.95;42.42
67517;BME280;68821;59.134;37.894;2023-04-08T07:08:04;101505.81;;;6.01;43.27
67517;BME280;68821;59.134;37.894;2023-04-08T07:10:30;101514.03;;;6.12;42.68
67517;BME280;68821;59.134;37.894;2023-04-08T07:12:56;101508.59;;;6.22;42.33
67517;BME280;68821;59.134;37.894;2023-04-08T07:15:23;101495.84;;;6.22;42.17
67517;BME280;68821;59.134;37.894;2023-04-08T07:17:49;101507.09;;;6.42;42.39
67517;BME280;68821;59.134;37.894;2023-04-08T07:20:15;101504.06;;;6.50;41.46
67517;BME280;68821;59.134;37.894;2023-04-08T07:22:41;101511.34;;;6.58;42.20
67517;BME280;68821;59.134;37.894;2023-04-08T07:25:07;101507.53;;;6.68;41.58
67517;BME280;68821;59.134;37.894;2023-04-08T07:27:34;101497.81;;;6.77;40.96
67517;BME280;68821;59.134;37.894;2023-04-08T07:30:01;101492.03;;;6.81;41.37
67517;BME280;68821;59.134;37.894;2023-04-08T07:32:27;101500.25;;;6.92;41.54
67517;BME280;68821;59.134;37.894;2023-04-08T07:34:53;101499.59;;;6.96;41.01
67517;BME280;68821;59.134;37.894;2023-04-08T07:37:19;101506.78;;;7.03;40.90
67517;BME280;68821;59.134;37.894;2023-04-08T07:39:45;101500.13;;;7.07;41.04
67517;BME280;68821;59.134;37.894;2023-04-08T07:42:11;101491.78;;;7.11;41.05
67517;BME280;68821;59.134;37.894;2023-04-08T07:44:37;101490.44;;;7.18;40.73
67517;BME280;68821;59.134;37.894;2023-04-08T07:47:03;101497.78;;;7.30;41.00
67517;BME280;68821;59.134;37.894;2023-04-08T07:49:29;101494.59;;;7.34;40.39
67517;BME280;68821;59.134;37.894;2023-04-08T07:51:55;101496.72;;;7.42;39.85
67517;BME280;68821;59.134;37.894;2023-04-08T07:54:22;101495.53;;;7.54;39.62
67517;BME280;68821;59.134;37.894;2023-04-08T07:56:48;101495.91;;;7.61;39.44
67517;BME280;68821;59.134;37.894;2023-04-08T07:59:14;101492.59;;;7.64;39.07
67517;BME280;68821;59.134;37.894;2023-04-08T08:01:40;101495.31;;;7.67;39.33
67517;BME280;68821;59.134;37.894;2023-04-08T08:04:06;101491.34;;;7.74;38.67
67517;BME280;68821;59.134;37.894;2023-04-08T08:06:32;101490.03;;;7.82;38.82
67517;BME280;68821;59.134;37.894;2023-04-08T08:08:59;101485.03;;;7.85;38.40
67517;BME280;68821;59.134;37.894;2023-04-08T08:11:26;101483.69;;;7.93;39.04
67517;BME280;68821;59.134;37.894;2023-04-08T08:13:54;101485.81;;;8.02;38.73
67517;BME280;68821;59.134;37.894;2023-04-08T08:16:21;101488.72;;;8.10;38.62
67517;BME280;68821;59.134;37.894;2023-04-08T08:18:47;101491.69;;;8.19;38.04
67517;BME280;68821;59.134;37.894;2023-04-08T08:21:13;101485.81;;;8.21;38.05
67517;BME280;68821;59.134;37.894;2023-04-08T08:23:40;101482.59;;;8.25;37.80
67517;BME280;68821;59.134;37.894;2023-04-08T08:26:09;101484.47;;;8.30;37.54
67517;BME280;68821;59.134;37.894;2023-04-08T08:28:35;101480.44;;;8.35;37.91
67517;BME280;68821;59.134;37.894;2023-04-08T08:31:01;101481.50;;;8.40;37.46
67517;BME280;68821;59.134;37.894;2023-04-08T08:33:28;101479.78;;;8.39;37.18
67517;BME280;68821;59.134;37.894;2023-04-08T08:35:54;101471.38;;;8.41;37.31
67517;BME280;68821;59.134;37.894;2023-04-08T08:38:20;101471.47;;;8.44;37.24
67517;BME280;68821;59.134;37.894;2023-04-08T08:40:56;101468.31;;;8.50;37.09
67517;BME280;68821;59.134;37.894;2023-04-08T08:43:23;101475.31;;;8.54;37.44
67517;BME280;68821;59.134;37.894;2023-04-08T08:45:49;101467.03;;;8.60;36.85
67517;BME280;68821;59.134;37.894;2023-04-08T08:48:16;101472.25;;;8.63;37.13
67517;BME280;68821;59.134;37.894;2023-04-08T08:50:42;101465.47;;;8.63;36.37
67517;BME280;68821;59.134;37.894;2023-04-08T08:53:08;101468.16;;;8.66;36.65
67517;BME280;68821;59.134;37.894;2023-04-08T08:55:34;101470.09;;;8.72;36.56
67517;BME280;68821;59.134;37.894;2023-04-08T08:58:01;101464.38;;;8.78;36.33
67517;BME280;68821;59.134;37.894;2023-04-08T09:00:35;101460.28;;;8.83;35.48
67517;BME280;68821;59.134;37.894;2023-04-08T09:03:22;101458.84;;;8.90;36.15
67517;BME280;68821;59.134;37.894;2023-04-08T09:05:49;101466.84;;;8.97;36.25
67517;BME280;68821;59.134;37.894;2023-04-08T09:08:40;101462.66;;;8.99;35.36
67517;BME280;68821;59.134;37.894;2023-04-08T09:11:11;101455.16;;;9.04;35.47
67517;BME280;68821;59.134;37.894;2023-04-08T09:13:38;101451.16;;;9.11;36.10
67517;BME280;68821;59.134;37.894;2023-04-08T09:16:07;101453.16;;;9.18;35.33
67517;BME280;68821;59.134;37.894;2023-04-08T09:18:35;101451.44;;;9.18;35.55
67517;BME280;68821;59.134;37.894;2023-04-08T09:21:05;101429.75;;;9.10;34.78
67517;BME280;68821;59.134;37.894;2023-04-08T09:23:50;101456.38;;;9.35;35.26
67517;BME280;68821;59.134;37.894;2023-04-08T09:26:23;101446.94;;;9.34;34.17
67517;BME280;68821;59.134;37.894;2023-04-08T09:29:10;101453.13;;;9.39;34.48
67517;BME280;68821;59.134;37.894;2023-04-08T09:31:38;101451.72;;;9.47;35.07
67517;BME280;68821;59.134;37.894;2023-04-08T09:34:15;101450.22;;;9.52;34.78
67517;BME280;68821;59.134;37.894;2023-04-08T09:36:43;101454.03;;;9.62;34.82
67517;BME280;68821;59.134;37.894;2023-04-08T09:39:09;101455.41;;;9.76;34.64
67517;BME280;68821;59.134;37.894;2023-04-08T09:41:37;101451.22;;;10.26;34.27
67517;BME280;68821;59.134;37.894;2023-04-08T09:44:06;101439.41;;;11.63;33.15
67517;BME280;68821;59.134;37.894;2023-04-08T09:46:46;101436.41;;;13.44;31.61
67517;BME280;68821;59.134;37.894;2023-04-08T09:49:28;101423.94;;;15.06;30.58
67517;BME280;68821;59.134;37.894;2023-04-08T09:52:20;101424.41;;;16.96;29.64
67517;BME280;68821;59.134;37.894;2023-04-08T09:57:27;101422.38;;;19.56;28.08
67517;BME280;68821;59.134;37.894;2023-04-08T10:00:09;101419.66;;;21.13;27.19
67517;BME280;68821;59.134;37.894;2023-04-08T10:03:02;101413.28;;;22.08;26.31
67517;BME280;68821;59.134;37.894;2023-04-08T10:05:30;101411.25;;;23.33;25.98
67517;BME280;68821;59.134;37.894;2023-04-08T10:07:57;101415.75;;;24.49;25.81
67517;BME280;68821;59.134;37.894;2023-04-08T10:10:25;101414.69;;;25.57;24.07
67517;BME280;68821;59.134;37.894;2023-04-08T10:12:52;101414.47;;;26.77;22.86
67517;BME280;68821;59.134;37.894;2023-04-08T10:15:29;101409.41;;;27.94;21.27
67517;BME280;68821;59.134;37.894;2023-04-08T10:20:46;101405.69;;;29.63;20.25
67517;BME280;68821;59.134;37.894;2023-04-08T10:23:15;101402.63;;;30.30;18.99
67517;BME280;68821;59.134;37.894;2023-04-08T10:25:44;101406.22;;;30.63;18.46
67517;BME280;68821;59.134;37.894;2023-04-08T10:33:09;101394.97;;;31.76;16.68
67517;BME280;68821;59.134;37.894;2023-04-08T10:35:40;101389.75;;;32.06;17.02
67517;BME280;68821;59.134;37.894;2023-04-08T10:38:13;101394.31;;;32.34;16.90
67517;BME280;68821;59.134;37.894;2023-04-08T10:40:40;101392.84;;;32.14;16.60
67517;BME280;68821;59.134;37.894;2023-04-08T10:43:11;101396.25;;;32.46;16.35
67517;BME280;68821;59.134;37.894;2023-04-08T10:45:39;101399.50;;;32.52;16.68
67517;BME280;68821;59.134;37.894;2023-04-08T10:50:38;101392.75;;;32.76;17.29
67517;BME280;68821;59.134;37.894;2023-04-08T10:53:05;101392.00;;;33.03;16.27
67517;BME280;68821;59.134;37.894;2023-04-08T10:55:32;101383.47;;;33.12;15.61
67517;BME280;68821;59.134;37.894;2023-04-08T10:58:06;101380.31;;;33.48;15.96
67517;BME280;68821;59.134;37.894;2023-04-08T11:00:38;101378.03;;;33.42;15.49
67517;BME280;68821;59.134;37.894;2023-04-08T11:03:06;101370.69;;;33.46;15.25
67517;BME280;68821;59.134;37.894;2023-04-08T11:05:33;101380.97;;;33.66;15.52
67517;BME280;68821;59.134;37.894;2023-04-08T11:08:02;101389.50;;;33.57;15.50
67517;BME280;68821;59.134;37.894;2023-04-08T11:10:29;101380.91;;;33.39;15.46
67517;BME280;68821;59.134;37.894;2023-04-08T11:12:59;101385.34;;;33.39;14.87
67517;BME280;68821;59.134;37.894;2023-04-08T11:15:28;101371.56;;;33.18;14.60
67517;BME280;68821;59.134;37.894;2023-04-08T11:17:55;101379.31;;;32.63;14.87
67517;BME280;68821;59.134;37.894;2023-04-08T11:20:26;101363.16;;;32.06;14.82
67517;BME280;68821;59.134;37.894;2023-04-08T11:22:52;101368.44;;;31.58;15.88
67517;BME280;68821;59.134;37.894;2023-04-08T11:25:18;101372.72;;;31.93;15.60
67517;BME280;68821;59.134;37.894;2023-04-08T11:27:46;101365.81;;;31.74;15.29
67517;BME280;68821;59.134;37.894;2023-04-08T11:30:12;101363.63;;;31.33;15.42
67517;BME280;68821;59.134;37.894;2023-04-08T11:32:38;101362.19;;;30.59;15.94
67517;BME280;68821;59.134;37.894;2023-04-08T11:35:06;101354.41;;;30.20;16.15
67517;BME280;68821;59.134;37.894;2023-04-08T11:37:37;101362.28;;;29.47;16.19
67517;BME280;68821;59.134;37.894;2023-04-08T11:40:09;101365.19;;;28.40;16.21
67517;BME280;68821;59.134;37.894;2023-04-08T11:42:37;101346.84;;;27.23;16.52
67517;BME280;68821;59.134;37.894;2023-04-08T11:45:12;101349.50;;;26.48;17.31
67517;BME280;68821;59.134;37.894;2023-04-08T11:47:38;101349.13;;;26.32;17.29
67517;BME280;68821;59.134;37.894;2023-04-08T11:50:06;101342.56;;;27.19;17.47
67517;BME280;68821;59.134;37.894;2023-04-08T11:52:47;101344.31;;;27.44;16.57
67517;BME280;68821;59.134;37.894;2023-04-08T11:55:23;101347.00;;;27.19;17.06
67517;BME280;68821;59.134;37.894;2023-04-08T11:57:51;101347.50;;;27.05;16.69
67517;BME280;68821;59.134;37.894;2023-04-08T12:00:19;101347.69;;;27.00;16.80
67517;BME280;68821;59.134;37.894;2023-04-08T12:02:46;101333.34;;;26.82;17.50
67517;BME280;68821;59.134;37.894;2023-04-08T12:05:14;101339.63;;;26.53;17.47
67517;BME280;68821;59.134;37.894;2023-04-08T12:07:41;101335.84;;;26.35;17.36
67517;BME280;68821;59.134;37.894;2023-04-08T12:10:09;101333.22;;;25.80;17.66
67517;BME280;68821;59.134;37.894;2023-04-08T12:12:35;101339.69;;;25.09;18.25
67517;BME280;68821;59.134;37.894;2023-04-08T12:15:02;101336.19;;;25.08;18.00
67517;BME280;68821;59.134;37.894;2023-04-08T12:17:29;101335.38;;;24.74;17.89
67517;BME280;68821;59.134;37.894;2023-04-08T12:19:56;101335.38;;;24.39;18.47
67517;BME280;68821;59.134;37.894;2023-04-08T12:22:26;101336.00;;;24.49;18.38
67517;BME280;68821;59.134;37.894;2023-04-08T12:24:53;101331.59;;;24.84;18.40
67517;BME280;68821;59.134;37.894;2023-04-08T12:27:19;101313.63;;;24.67;18.17
67517;BME280;68821;59.134;37.894;2023-04-08T12:29:49;101324.69;;;23.70;18.39
67517;BME280;68821;59.134;37.894;2023-04-08T12:32:16;101324.34;;;23.05;18.67
67517;BME280;68821;59.134;37.894;2023-04-08T12:34:42;101327.66;;;23.13;18.70
67517;BME280;68821;59.134;37.894;2023-04-08T12:37:09;101311.63;;;23.28;18.58
67517;BME280;68821;59.134;37.894;2023-04-08T12:39:35;101309.97;;;23.65;18.87
67517;BME280;68821;59.134;37.894;2023-04-08T12:42:01;101310.72;;;23.70;18.72
67517;BME280;68821;59.134;37.894;2023-04-08T12:44:28;101307.09;;;23.35;18.86
67517;BME280;68821;59.134;37.894;2023-04-08T12:46:54;101303.84;;;23.24;19.09
67517;BME280;68821;59.134;37.894;2023-04-08T12:49:21;101300.72;;;23.48;18.98
67517;BME280;68821;59.134;37.894;2023-04-08T12:51:47;101288.75;;;23.74;18.58
67517;BME280;68821;59.134;37.894;2023-04-08T12:54:13;101287.66;;;23.84;18.69
67517;BME280;68821;59.134;37.894;2023-04-08T12:56:39;101287.69;;;23.83;18.57
67517;BME280;68821;59.134;37.894;2023-04-08T12:59:08;101290.63;;;23.69;18.57
67517;BME280;68821;59.134;37.894;2023-04-08T13:01:34;101284.00;;;23.53;18.79
67517;BME280;68821;59.134;37.894;2023-04-08T13:04:00;101281.78;;;23.73;18.70